createdAt,value
2018-12-18T00:01:02.850Z,99.993896
2018-12-18T00:06:25.576Z,99.993896
2018-12-18T00:11:48.240Z,99.993896
2018-12-18T00:17:12.087Z,99.993896
2018-12-18T00:22:35.008Z,99.993896
2018-12-18T00:27:57.854Z,99.993896
2018-12-18T00:33:20.557Z,99.993896
2018-12-18T00:38:44.211Z,99.993896
2018-12-18T00:44:07.964Z,99.993896
2018-12-18T00:49:30.658Z,99.993896
2018-12-18T00:54:53.383Z,99.993896
2018-12-18T01:00:16.719Z,99.993896
2018-12-18T01:05:39.432Z,99.993896
2018-12-18T01:11:03.479Z,99.993896
2018-12-18T01:16:26.501Z,99.993896
2018-12-18T01:21:49.306Z,99.993896
2018-12-18T01:27:13.095Z,99.993896
2018-12-18T01:32:35.994Z,99.993896
2018-12-18T01:37:59.604Z,99.993896
2018-12-18T01:43:22.485Z,99.993896
2018-12-18T01:48:45.319Z,99.993896
2018-12-18T01:54:08.089Z,99.993896
2018-12-18T01:59:30.931Z,99.993896
2018-12-18T02:04:53.671Z,99.993896
2018-12-18T02:10:17.072Z,99.993896
2018-12-18T02:15:39.878Z,99.993896
2018-12-18T02:21:02.493Z,99.993896
2018-12-18T02:26:25.228Z,99.993896
2018-12-18T02:31:47.931Z,99.993896
2018-12-18T02:37:12.004Z,99.993896
2018-12-18T02:42:34.908Z,99.993896
2018-12-18T02:47:57.692Z,99.993896
2018-12-18T02:53:20.501Z,99.993896
2018-12-18T02:58:43.259Z,99.993896
2018-12-18T03:04:06.222Z,99.993896
2018-12-18T03:09:28.992Z,99.993896
2018-12-18T03:14:51.662Z,99.993896
2018-12-18T03:20:14.422Z,99.993896
2018-12-18T03:25:37.077Z,99.993896
2018-12-18T03:30:59.887Z,99.993896
2018-12-18T03:36:22.654Z,99.993896
2018-12-18T03:41:45.328Z,99.993896
2018-12-18T03:47:07.992Z,99.993896
2018-12-18T03:52:30.774Z,99.993896
2018-12-18T03:57:53.480Z,99.993896
2018-12-18T04:03:16.180Z,99.993896
2018-12-18T04:08:38.930Z,99.993896
2018-12-18T04:14:01.675Z,99.993896
2018-12-18T04:19:24.436Z,99.993896
2018-12-18T04:24:47.169Z,99.993896
2018-12-18T04:30:09.933Z,99.993896
2018-12-18T04:35:32.618Z,99.993896
2018-12-18T04:40:55.544Z,99.993896
2018-12-18T04:46:18.327Z,99.993896
2018-12-18T04:51:41.112Z,99.993896
2018-12-18T04:57:03.917Z,99.993896
2018-12-18T05:02:26.600Z,99.993896
2018-12-18T05:07:49.304Z,99.993896
2018-12-18T05:13:12.029Z,99.993896
2018-12-18T05:18:35.586Z,99.993896
2018-12-18T05:23:58.341Z,99.993896
2018-12-18T05:29:21.013Z,99.993896
2018-12-18T05:34:43.827Z,99.804688
2018-12-18T05:40:07.776Z,99.230957
2018-12-18T05:45:30.710Z,99.230957
2018-12-18T05:50:53.569Z,97.98584
2018-12-18T05:56:16.511Z,97.77832
2018-12-18T06:01:39.258Z,97.88208
2018-12-18T06:07:02.025Z,97.674561
2018-12-18T06:12:24.798Z,96.850586
2018-12-18T06:17:47.490Z,97.20459
2018-12-18T06:23:10.292Z,97.412109
2018-12-18T06:28:32.970Z,98.236084
2018-12-18T06:33:55.830Z,98.236084
2018-12-18T06:39:18.608Z,98.651123
2018-12-18T06:44:41.317Z,98.651123
2018-12-18T06:50:03.997Z,99.066162
2018-12-18T06:55:26.894Z,98.962402
2018-12-18T07:00:49.715Z,99.377441
2018-12-18T07:06:12.416Z,99.066162
2018-12-18T07:11:35.165Z,98.858643
2018-12-18T07:16:57.859Z,98.962402
2018-12-18T07:22:20.589Z,98.651123
2018-12-18T07:27:44.363Z,98.193359
2018-12-18T07:33:07.242Z,98.297119
2018-12-18T07:38:29.882Z,98.297119
2018-12-18T07:43:52.637Z,97.88208
2018-12-18T07:49:15.379Z,97.259521
2018-12-18T07:54:38.152Z,97.363281
2018-12-18T08:00:00.977Z,97.98584
2018-12-18T08:05:29.648Z,97.77832
2018-12-18T08:10:53.278Z,97.88208
2018-12-18T08:16:16.236Z,96.643066
2018-12-18T08:21:38.920Z,97.155762
2018-12-18T08:27:01.609Z,96.643066
2018-12-18T08:32:24.526Z,96.331787
2018-12-18T08:37:47.225Z,96.331787
2018-12-18T08:43:09.955Z,96.539307
2018-12-18T08:48:32.649Z,95.19043
2018-12-18T08:53:56.570Z,95.355225
2018-12-18T08:59:19.356Z,95.043945
2018-12-18T09:04:42.130Z,94.073486
2018-12-18T09:10:04.818Z,93.865967
2018-12-18T09:15:27.534Z,93.762207
2018-12-18T09:20:50.208Z,94.281006
2018-12-18T09:26:12.882Z,92.828369
2018-12-18T09:31:36.093Z,94.128418
2018-12-18T09:36:58.758Z,91.815186
2018-12-18T09:42:21.449Z,92.456055
2018-12-18T09:47:45.234Z,90.246582
2018-12-18T09:53:08.496Z,88.140869
2018-12-18T09:58:31.143Z,88.037109
2018-12-18T10:03:53.834Z,87.561035
2018-12-18T10:09:17.531Z,85.870361
2018-12-18T10:14:41.279Z,86.737061
2018-12-18T10:20:04.718Z,86.120605
2018-12-18T10:25:27.463Z,87.82959
2018-12-18T10:30:50.129Z,85.253906
2018-12-18T10:36:12.923Z,85.009766
2018-12-18T10:41:36.186Z,84.185791
2018-12-18T10:46:59.451Z,84.454346
2018-12-18T10:52:22.193Z,84.246826
2018-12-18T10:57:44.910Z,83.526611
2018-12-18T11:03:07.788Z,85.650635
2018-12-18T11:08:30.382Z,84.515381
2018-12-18T11:13:53.043Z,82.666016
2018-12-18T11:19:16.719Z,83.447266
2018-12-18T11:24:39.439Z,79.748535
2018-12-18T11:30:02.121Z,80.877686
2018-12-18T11:35:25.901Z,82.318115
2018-12-18T11:40:49.516Z,81.494141
2018-12-18T11:46:12.174Z,81.390381
2018-12-18T11:51:34.854Z,81.80542
2018-12-18T11:56:57.622Z,81.188965
2018-12-18T12:02:20.360Z,81.390381
2018-12-18T12:07:43.132Z,81.90918
2018-12-18T12:13:06.567Z,81.329346
2018-12-18T12:18:29.236Z,82.525635
2018-12-18T12:23:51.978Z,82.15332
2018-12-18T12:29:14.625Z,82.562256
2018-12-18T12:34:37.306Z,82.110596
2018-12-18T12:39:59.962Z,82.006836
2018-12-18T12:45:23.680Z,82.525635
2018-12-18T12:50:46.437Z,82.006836
2018-12-18T12:56:10.159Z,81.188965
2018-12-18T13:01:32.912Z,81.80542
2018-12-18T13:06:56.540Z,82.006836
2018-12-18T13:12:19.212Z,81.286621
2018-12-18T13:17:42.515Z,82.214355
2018-12-18T13:23:05.147Z,81.842041
2018-12-18T13:28:27.946Z,82.354736
2018-12-18T13:33:50.733Z,82.189941
2018-12-18T13:39:13.503Z,82.495117
2018-12-18T13:44:36.225Z,82.806396
2018-12-18T13:50:00.447Z,83.465576
2018-12-18T13:55:23.116Z,83.666992
2018-12-18T14:00:45.862Z,84.222412
2018-12-18T14:06:10.585Z,84.429932
2018-12-18T14:11:34.192Z,84.222412
2018-12-18T14:16:57.642Z,84.637451
2018-12-18T14:22:21.320Z,85.601807
2018-12-18T14:27:44.088Z,85.437012
2018-12-18T14:33:07.750Z,85.125732
2018-12-18T14:38:30.589Z,85.784912
2018-12-18T14:43:53.232Z,86.651611
2018-12-18T14:49:16.047Z,87.06665
2018-12-18T14:54:38.800Z,88.140869
2018-12-18T15:00:02.151Z,87.17041
2018-12-18T15:05:25.264Z,87.82959
2018-12-18T15:10:47.902Z,88.38501
2018-12-18T15:16:10.570Z,88.38501
2018-12-18T15:21:34.252Z,89.562988
2018-12-18T15:26:56.919Z,90.124512
2018-12-18T15:32:19.778Z,90.264893
2018-12-18T15:37:42.474Z,90.368652
2018-12-18T15:43:05.137Z,89.996338
2018-12-18T15:48:27.932Z,89.483643
2018-12-18T15:53:50.675Z,90.142822
2018-12-18T15:59:13.455Z,90.496826
2018-12-18T16:04:36.106Z,90.704346
2018-12-18T16:09:58.806Z,90.95459
2018-12-18T16:15:21.549Z,91.05835
2018-12-18T16:20:44.241Z,91.619873
2018-12-18T16:26:07.394Z,92.175293
2018-12-18T16:31:30.090Z,92.590332
2018-12-18T16:36:52.736Z,92.736816
2018-12-18T16:42:15.414Z,93.054199
2018-12-18T16:47:39.325Z,92.736816
2018-12-18T16:53:02.181Z,93.304443
2018-12-18T16:58:25.679Z,93.408203
2018-12-18T17:03:49.072Z,92.944336
2018-12-18T17:09:11.870Z,92.425537
2018-12-18T17:14:34.604Z,92.529297
2018-12-18T17:19:58.326Z,92.321777
2018-12-18T17:25:21.014Z,92.114258
2018-12-18T17:30:43.861Z,92.218018
2018-12-18T17:36:06.564Z,91.802979
2018-12-18T17:41:29.382Z,92.010498
2018-12-18T17:46:53.076Z,92.364502
2018-12-18T17:52:16.003Z,92.218018
2018-12-18T17:57:39.131Z,91.802979
2018-12-18T18:03:02.061Z,91.949463
2018-12-18T18:08:25.878Z,91.845703
2018-12-18T18:13:49.024Z,92.364502
2018-12-18T18:19:12.024Z,92.779541
2018-12-18T18:24:34.939Z,92.053223
2018-12-18T18:29:57.814Z,91.949463
2018-12-18T18:35:20.745Z,92.718506
2018-12-18T18:40:43.446Z,92.822266
2018-12-18T18:46:06.356Z,93.139648
2018-12-18T18:51:29.587Z,92.926025
2018-12-18T18:56:52.481Z,93.029785
2018-12-18T19:02:15.371Z,92.926025
2018-12-18T19:07:38.991Z,92.614746
2018-12-18T19:13:01.867Z,93.450928
2018-12-18T19:18:24.586Z,92.822266
2018-12-18T19:23:48.568Z,92.510986
2018-12-18T19:29:11.709Z,92.407227
2018-12-18T19:34:36.732Z,92.510986
2018-12-18T19:39:57.811Z,92.260742
2018-12-18T19:45:21.763Z,92.718506
2018-12-18T19:50:44.831Z,92.260742
2018-12-18T19:56:07.629Z,92.468262
2018-12-18T20:01:30.729Z,92.572021
2018-12-18T20:06:53.646Z,92.675781
2018-12-18T20:12:16.576Z,92.572021
2018-12-18T20:17:39.561Z,92.260742
2018-12-18T20:23:02.606Z,92.364502
2018-12-18T20:28:25.978Z,91.802979
2018-12-18T20:33:49.138Z,91.699219
2018-12-18T20:39:12.400Z,91.28418
2018-12-18T20:44:35.702Z,91.07666
2018-12-18T20:49:58.823Z,91.387939
2018-12-18T20:55:22.425Z,89.996338
2018-12-18T21:00:45.356Z,90.515137
2018-12-18T21:06:08.283Z,89.892578
2018-12-18T21:11:31.229Z,89.685059
2018-12-18T21:16:55.262Z,90.100098
2018-12-18T21:22:19.175Z,89.685059
2018-12-18T21:27:42.539Z,89.685059
2018-12-18T21:33:05.572Z,88.922119
2018-12-18T21:38:30.320Z,88.647461
2018-12-18T21:43:51.739Z,88.543701
2018-12-18T21:49:14.749Z,88.439941
2018-12-18T21:54:37.931Z,87.988281
2018-12-18T22:00:00.595Z,87.261963
2018-12-18T22:05:25.133Z,87.573242
2018-12-18T22:10:48.285Z,87.780762
2018-12-18T22:16:11.776Z,88.543701
2018-12-18T22:21:34.857Z,87.884521
2018-12-18T22:26:57.795Z,87.573242
2018-12-18T22:32:21.111Z,86.077881
2018-12-18T22:37:44.672Z,85.247803
2018-12-18T22:43:08.324Z,85.559082
2018-12-18T22:48:31.577Z,85.040283
2018-12-18T22:53:55.487Z,85.083008
2018-12-18T22:59:19.341Z,84.875488
2018-12-18T23:04:42.130Z,84.771729
2018-12-18T23:10:04.897Z,84.667969
2018-12-18T23:15:27.909Z,84.979248
2018-12-18T23:20:50.910Z,85.327148
2018-12-18T23:26:17.080Z,85.638428
2018-12-18T23:31:40.656Z,86.157227
2018-12-18T23:37:03.672Z,85.638428
2018-12-18T23:42:26.633Z,85.534668
2018-12-18T23:47:49.565Z,85.534668
2018-12-18T23:53:12.831Z,85.534668
2018-12-18T23:58:36.089Z,85.327148
